Churanov, Czech Republic
Current Conditions -  °F | °C
As of 2:00 PM on Wednesday 28 Jan 2015 (Local Time) from LKLN Reporting Station
Overcast Overcast  
Wind Chill: 29°   Ceiling: 2400
Heat Index: 37°   Visibility: 6mi
Dew Point: 32°   Wind: 13mph
Humidity: 81%   Direction: 240°WSW
Pressure: 29.94"   Gusts: NA
Location:  49.07°N, 13.62°E
Report Text: LKLN 281200Z AUTO 24011KT 9999 SCT019 BKN024 OVC045 03/M00 Q1014
Loading
Personal Weather Stations






























Interactive Weather Map New forecast layout! Learn more

10-Day Weather Forecast

Advertisements
Track Severe Weather on mobile